createdAt,value
2017-09-07T00:00:52.333Z,13.62
2017-09-07T00:02:02.609Z,13.64
2017-09-07T00:03:12.880Z,13.64
2017-09-07T00:04:23.172Z,13.6
2017-09-07T00:05:33.123Z,13.6
2017-09-07T00:06:43.645Z,13.58
2017-09-07T00:07:53.903Z,13.47
2017-09-07T00:09:03.534Z,13.52
2017-09-07T00:10:13.831Z,13.55
2017-09-07T00:11:23.791Z,13.55
2017-09-07T00:12:33.696Z,13.45
2017-09-07T00:13:43.968Z,13.5
2017-09-07T00:14:53.622Z,13.49
2017-09-07T00:16:03.585Z,13.47
2017-09-07T00:17:13.529Z,13.46
2017-09-07T00:18:24.056Z,13.45
2017-09-07T00:19:34.024Z,13.43
2017-09-07T00:20:44.288Z,13.43
2017-09-07T00:21:54.572Z,13.42
2017-09-07T00:23:04.896Z,13.4
2017-09-07T00:24:15.109Z,13.4
2017-09-07T00:25:25.389Z,13.45
2017-09-07T00:26:35.355Z,13.43
2017-09-07T00:27:45.293Z,13.36
2017-09-07T00:28:55.586Z,13.39
2017-09-07T00:30:06.095Z,13.4
2017-09-07T00:31:16.373Z,13.27
2017-09-07T00:32:26.656Z,13.33
2017-09-07T00:33:36.612Z,13.33
2017-09-07T00:34:46.578Z,13.33
2017-09-07T00:35:57.167Z,13.31
2017-09-07T00:37:07.456Z,13.26
2017-09-07T00:38:17.102Z,13.33
2017-09-07T00:39:27.057Z,13.28
2017-09-07T00:40:37.327Z,13.17
2017-09-07T00:41:47.527Z,13.28
2017-09-07T00:42:57.815Z,13.28
2017-09-07T00:44:07.477Z,13.2
2017-09-07T00:45:17.753Z,13.21
2017-09-07T00:46:28.017Z,13.27
2017-09-07T00:47:38.223Z,13.23
2017-09-07T00:48:48.506Z,13.27
2017-09-07T00:49:58.451Z,13.21
2017-09-07T00:51:08.728Z,13.2
2017-09-07T00:52:18.996Z,13.16
2017-09-07T00:53:29.509Z,13.31
2017-09-07T00:54:39.789Z,13.26
2017-09-07T00:55:49.759Z,13.24
2017-09-07T00:56:59.710Z,13.19
2017-09-07T00:58:09.667Z,13.24
2017-09-07T00:59:19.883Z,13.26
2017-09-07T01:00:29.840Z,13.16
2017-09-07T01:01:40.112Z,13.08
2017-09-07T01:02:49.748Z,13.23
2017-09-07T01:04:00.003Z,13.16
2017-09-07T01:05:10.559Z,13.13
2017-09-07T01:06:20.488Z,13.12
2017-09-07T01:07:30.426Z,13.11
2017-09-07T01:08:40.358Z,13.08
2017-09-07T01:09:50.291Z,13.06
2017-09-07T01:11:00.788Z,13.13
2017-09-07T01:12:10.725Z,13.09
2017-09-07T01:13:20.661Z,13.12
2017-09-07T01:14:30.904Z,13.03
2017-09-07T01:15:41.158Z,13.05
2017-09-07T01:16:51.340Z,13.02
2017-09-07T01:18:01.595Z,13.06
2017-09-07T01:19:11.531Z,13.03
2017-09-07T01:20:21.459Z,13.03
2017-09-07T01:21:31.706Z,13.03
2017-09-07T01:22:41.897Z,12.93
2017-09-07T01:23:52.140Z,12.93
2017-09-07T01:25:02.396Z,12.99
2017-09-07T01:26:12.637Z,12.91
2017-09-07T01:27:22.578Z,12.99
2017-09-07T01:28:33.098Z,12.9
2017-09-07T01:29:43.348Z,12.9
2017-09-07T01:30:53.596Z,12.86
2017-09-07T01:32:03.851Z,12.88
2017-09-07T01:33:14.097Z,12.9
2017-09-07T01:34:24.285Z,12.84
2017-09-07T01:35:34.224Z,12.86
2017-09-07T01:36:44.158Z,12.88
2017-09-07T01:37:54.412Z,12.83
2017-09-07T01:39:04.663Z,12.8
2017-09-07T01:40:14.846Z,12.78
2017-09-07T01:41:25.091Z,12.78
2017-09-07T01:42:35.334Z,12.75
2017-09-07T01:43:45.260Z,12.76
2017-09-07T01:44:55.191Z,12.78
2017-09-07T01:46:05.379Z,12.76
2017-09-07T01:47:15.325Z,12.69
2017-09-07T01:48:25.269Z,12.68
2017-09-07T01:49:35.519Z,12.8
2017-09-07T01:50:45.454Z,12.68
2017-09-07T01:51:55.979Z,12.68
2017-09-07T01:53:05.914Z,12.69
2017-09-07T01:54:16.172Z,12.61
2017-09-07T01:55:26.099Z,12.48
2017-09-07T01:56:36.036Z,12.63
2017-09-07T01:57:46.545Z,12.61
2017-09-07T01:58:56.479Z,12.58
2017-09-07T02:00:06.726Z,12.45
2017-09-07T02:01:16.665Z,12.54
2017-09-07T02:02:26.904Z,12.54
2017-09-07T02:03:37.397Z,12.5
2017-09-07T02:04:47.332Z,12.5
2017-09-07T02:05:57.573Z,12.51
2017-09-07T02:07:07.512Z,12.53
2017-09-07T02:08:17.439Z,12.53
2017-09-07T02:09:27.679Z,12.45
2017-09-07T02:10:37.925Z,12.54
2017-09-07T02:11:47.858Z,12.51
2017-09-07T02:12:58.111Z,12.5
2017-09-07T02:14:08.356Z,12.48
2017-09-07T02:15:18.545Z,12.47
2017-09-07T02:16:28.476Z,12.45
2017-09-07T02:17:38.411Z,12.48
2017-09-07T02:18:48.699Z,12.51
2017-09-07T02:19:58.600Z,12.53
2017-09-07T02:21:08.462Z,12.53
2017-09-07T02:22:18.699Z,12.53
2017-09-07T02:23:28.647Z,12.5
2017-09-07T02:24:38.893Z,12.51
2017-09-07T02:25:49.160Z,12.51
2017-09-07T02:26:59.659Z,12.47
2017-09-07T02:28:09.603Z,12.48
2017-09-07T02:29:19.542Z,12.5
2017-09-07T02:30:29.791Z,12.43
2017-09-07T02:31:40.047Z,12.39
2017-09-07T02:32:50.539Z,12.4
2017-09-07T02:34:00.469Z,12.4
2017-09-07T02:35:10.717Z,12.39
2017-09-07T02:36:20.979Z,12.4
2017-09-07T02:37:30.919Z,12.43
2017-09-07T02:38:41.424Z,12.36
2017-09-07T02:39:51.676Z,12.44
2017-09-07T02:41:01.609Z,12.47
2017-09-07T02:42:11.865Z,12.35
2017-09-07T02:43:22.129Z,12.36
2017-09-07T02:44:32.631Z,12.37
2017-09-07T02:45:42.570Z,12.36
2017-09-07T02:46:52.506Z,12.33
2017-09-07T02:48:02.435Z,12.29
2017-09-07T02:49:12.379Z,12.33
2017-09-07T02:50:22.888Z,12.37
2017-09-07T02:51:33.150Z,12.39
2017-09-07T02:52:43.402Z,12.29
2017-09-07T02:53:53.338Z,12.3
2017-09-07T02:55:03.596Z,12.33
2017-09-07T02:56:13.155Z,12.32
2017-09-07T02:57:23.414Z,12.36
2017-09-07T02:58:33.669Z,12.4
2017-09-07T02:59:43.932Z,12.32
2017-09-07T03:00:54.172Z,12.36
2017-09-07T03:02:04.673Z,12.21
2017-09-07T03:03:14.610Z,12.23
2017-09-07T03:04:24.855Z,12.28
2017-09-07T03:05:34.788Z,12.28
2017-09-07T03:06:45.043Z,12.35
2017-09-07T03:07:55.551Z,12.32
2017-09-07T03:09:05.802Z,12.29
2017-09-07T03:10:16.047Z,12.25
2017-09-07T03:11:25.668Z,12.23
2017-09-07T03:12:35.961Z,12.28
2017-09-07T03:13:46.477Z,12.18
2017-09-07T03:14:56.729Z,12.18
2017-09-07T03:16:06.974Z,12.12
2017-09-07T03:17:16.924Z,12.25
2017-09-07T03:18:26.858Z,12.21
2017-09-07T03:19:37.363Z,12.17
2017-09-07T03:20:47.615Z,12.2
2017-09-07T03:21:57.543Z,12.18
2017-09-07T03:23:07.798Z,12.12
2017-09-07T03:24:17.727Z,12.12
2017-09-07T03:25:28.240Z,12.21
2017-09-07T03:26:38.480Z,12.21
2017-09-07T03:27:48.427Z,12.03
2017-09-07T03:28:58.708Z,12.12
2017-09-07T03:30:08.963Z,12.11
2017-09-07T03:31:19.159Z,12.21
2017-09-07T03:32:29.099Z,12.14
2017-09-07T03:33:39.348Z,12.05
2017-09-07T03:34:49.594Z,12.11
2017-09-07T03:35:59.850Z,12.03
2017-09-07T03:37:10.037Z,12.1
2017-09-07T03:38:20.298Z,12.03
2017-09-07T03:39:30.548Z,12.05
2017-09-07T03:40:40.806Z,12.1
2017-09-07T03:41:51.298Z,12.07
2017-09-07T03:43:01.794Z,11.99
2017-09-07T03:44:11.731Z,12.1
2017-09-07T03:45:21.674Z,12.03
2017-09-07T03:46:31.310Z,11.91
2017-09-07T03:47:41.555Z,11.96
2017-09-07T03:48:52.050Z,12.02
2017-09-07T03:50:01.671Z,12.02
2017-09-07T03:51:11.600Z,12.03
2017-09-07T03:52:21.224Z,12
2017-09-07T03:53:31.511Z,12.02
2017-09-07T03:54:41.699Z,12.05
2017-09-07T03:55:51.936Z,12.03
2017-09-07T03:57:02.183Z,11.97
2017-09-07T03:58:12.134Z,12.08
2017-09-07T03:59:21.436Z,12.05
2017-09-07T04:00:31.656Z,11.99
2017-09-07T04:01:41.901Z,12.02
2017-09-07T04:02:52.161Z,11.99
2017-09-07T04:04:02.099Z,12.02
2017-09-07T04:05:11.719Z,11.99
2017-09-07T04:06:22.224Z,11.99
2017-09-07T04:07:31.841Z,11.97
2017-09-07T04:08:42.095Z,11.93
2017-09-07T04:09:52.340Z,11.95
2017-09-07T04:11:02.314Z,11.95
2017-09-07T04:12:12.508Z,12
2017-09-07T04:13:22.771Z,11.88
2017-09-07T04:14:32.703Z,11.99
2017-09-07T04:15:42.957Z,12.02
2017-09-07T04:16:52.260Z,11.96
2017-09-07T04:18:02.446Z,11.96
2017-09-07T04:19:12.715Z,11.95
2017-09-07T04:20:22.648Z,11.95
2017-09-07T04:21:32.891Z,11.97
2017-09-07T04:22:42.518Z,11.95
2017-09-07T04:23:52.703Z,11.97
2017-09-07T04:25:02.946Z,11.89
2017-09-07T04:26:12.568Z,11.91
2017-09-07T04:27:22.508Z,11.95
2017-09-07T04:28:32.773Z,11.97
2017-09-07T04:29:42.644Z,11.99
2017-09-07T04:30:52.904Z,12.02
2017-09-07T04:32:03.161Z,12
2017-09-07T04:33:13.413Z,12.02
2017-09-07T04:34:23.357Z,11.89
2017-09-07T04:35:33.535Z,12.02
2017-09-07T04:36:43.484Z,11.95
2017-09-07T04:37:53.737Z,11.99
2017-09-07T04:39:03.997Z,11.99
2017-09-07T04:40:14.238Z,11.89
2017-09-07T04:41:24.736Z,12
2017-09-07T04:42:35.009Z,11.96
2017-09-07T04:43:44.951Z,12.02
2017-09-07T04:44:55.205Z,12.03
2017-09-07T04:46:05.464Z,12.11
2017-09-07T04:47:15.646Z,12.12
2017-09-07T04:48:25.578Z,12.08
2017-09-07T04:49:35.827Z,12.02
2017-09-07T04:50:46.070Z,12.05
2017-09-07T04:51:56.336Z,12.11
2017-09-07T04:53:06.527Z,12.08
2017-09-07T04:54:16.773Z,12.1
2017-09-07T04:55:26.718Z,12
2017-09-07T04:56:36.969Z,12.07
2017-09-07T04:57:46.910Z,12.14
2017-09-07T04:58:57.443Z,12.05
2017-09-07T05:00:07.691Z,12.02
2017-09-07T05:01:17.627Z,12.15
2017-09-07T05:02:27.894Z,12.08
2017-09-07T05:03:37.519Z,12.03
2017-09-07T05:04:48.027Z,12.05
2017-09-07T05:05:57.976Z,12.15
2017-09-07T05:07:08.228Z,12.11
2017-09-07T05:08:18.477Z,12.11
2017-09-07T05:09:28.725Z,12.17
2017-09-07T05:10:38.584Z,12.23
2017-09-07T05:11:48.514Z,12.21
2017-09-07T05:12:58.128Z,12.25
2017-09-07T05:14:08.393Z,12.25
2017-09-07T05:15:18.332Z,12.29
2017-09-07T05:16:28.837Z,12.3
2017-09-07T05:17:38.783Z,12.32
2017-09-07T05:18:48.397Z,12.36
2017-09-07T05:19:58.661Z,12.35
2017-09-07T05:21:08.936Z,12.4
2017-09-07T05:22:19.450Z,12.44
2017-09-07T05:23:29.419Z,12.39
2017-09-07T05:24:39.682Z,12.43
2017-09-07T05:25:49.935Z,12.44
2017-09-07T05:26:59.877Z,12.48
2017-09-07T05:28:10.388Z,12.51
2017-09-07T05:29:20.634Z,12.54
2017-09-07T05:30:30.885Z,12.53
2017-09-07T05:31:40.822Z,12.54
2017-09-07T05:32:50.757Z,12.5
2017-09-07T05:34:01.262Z,12.51
2017-09-07T05:35:11.508Z,12.47
2017-09-07T05:36:21.452Z,12.5
2017-09-07T05:37:31.700Z,12.51
2017-09-07T05:38:41.960Z,12.62
2017-09-07T05:39:52.455Z,12.65
2017-09-07T05:41:02.706Z,12.65
2017-09-07T05:42:12.349Z,12.68
2017-09-07T05:43:22.606Z,12.68
2017-09-07T05:44:32.853Z,12.66
2017-09-07T05:45:43.074Z,12.61
2017-09-07T05:46:53.370Z,12.75
2017-09-07T05:48:03.301Z,12.73
2017-09-07T05:49:13.571Z,12.78
2017-09-07T05:50:23.841Z,12.76
2017-09-07T05:51:34.346Z,12.78
2017-09-07T05:52:44.603Z,12.88
2017-09-07T05:53:54.240Z,12.84
2017-09-07T05:55:04.514Z,12.87
2017-09-07T05:56:14.484Z,12.84
2017-09-07T05:57:25.064Z,12.8
2017-09-07T05:58:35.325Z,12.94
2017-09-07T05:59:44.966Z,12.86
2017-09-07T06:00:55.260Z,12.93
2017-09-07T06:02:05.525Z,12.86
2017-09-07T06:03:16.080Z,12.87
2017-09-07T06:04:26.340Z,12.98
2017-09-07T06:05:36.586Z,12.88
2017-09-07T06:06:46.849Z,12.93
2017-09-07T06:07:56.782Z,12.91
2017-09-07T06:09:07.311Z,12.9
2017-09-07T06:10:17.245Z,12.9
2017-09-07T06:11:27.494Z,12.91
2017-09-07T06:12:37.768Z,12.93
2017-09-07T06:13:47.705Z,12.91
2017-09-07T06:14:58.204Z,12.9
2017-09-07T06:16:08.137Z,12.94
2017-09-07T06:17:18.395Z,12.91
2017-09-07T06:18:28.657Z,12.98
2017-09-07T06:19:38.626Z,12.94
2017-09-07T06:20:49.143Z,12.87
2017-09-07T06:21:59.400Z,12.86
2017-09-07T06:23:09.654Z,12.94
2017-09-07T06:24:19.908Z,12.88
2017-09-07T06:25:29.835Z,12.91
2017-09-07T06:26:40.376Z,12.93
2017-09-07T06:27:50.631Z,12.9
2017-09-07T06:29:00.886Z,12.93
2017-09-07T06:30:10.829Z,12.94
2017-09-07T06:31:21.086Z,12.93
2017-09-07T06:32:31.273Z,13.06
2017-09-07T06:33:41.205Z,13.12
2017-09-07T06:34:51.475Z,13.16
2017-09-07T06:36:01.734Z,13.16
2017-09-07T06:37:11.669Z,13.12
2017-09-07T06:38:22.172Z,13.2
2017-09-07T06:39:31.802Z,13.09
2017-09-07T06:40:42.069Z,13.11
2017-09-07T06:41:52.323Z,13.16
2017-09-07T06:43:02.570Z,13.21
2017-09-07T06:44:12.755Z,13.23
2017-09-07T06:45:22.687Z,13.11
2017-09-07T06:46:32.947Z,13.17
2017-09-07T06:47:43.216Z,13.24
2017-09-07T06:48:52.841Z,13.36
2017-09-07T06:50:03.248Z,13.31
2017-09-07T06:51:13.495Z,13.31
2017-09-07T06:52:23.442Z,13.3
2017-09-07T06:53:33.382Z,13.37
2017-09-07T06:54:43.636Z,13.36
2017-09-07T06:55:54.175Z,13.27
2017-09-07T06:57:04.450Z,13.36
2017-09-07T06:58:14.713Z,13.3
2017-09-07T06:59:24.975Z,13.45
2017-09-07T07:00:35.261Z,13.43
2017-09-07T07:01:45.773Z,13.45
2017-09-07T07:02:55.740Z,13.54
2017-09-07T07:04:06.035Z,13.52
2017-09-07T07:05:16.326Z,13.47
2017-09-07T07:06:26.588Z,13.45
2017-09-07T07:07:36.871Z,13.42
2017-09-07T07:08:47.224Z,13.42
2017-09-07T07:09:57.589Z,13.49
2017-09-07T07:11:07.601Z,13.49
2017-09-07T07:12:17.897Z,13.5
2017-09-07T07:13:28.450Z,13.5
2017-09-07T07:14:38.769Z,13.57
2017-09-07T07:15:49.025Z,13.6
2017-09-07T07:16:59.266Z,13.67
2017-09-07T07:18:09.269Z,13.6
2017-09-07T07:19:19.803Z,13.64
2017-09-07T07:20:30.060Z,13.62
2017-09-07T07:21:40.310Z,13.71
2017-09-07T07:22:50.603Z,13.71
2017-09-07T07:24:01.130Z,13.73
2017-09-07T07:25:11.349Z,13.73
2017-09-07T07:26:21.639Z,13.73
2017-09-07T07:27:31.633Z,13.8
2017-09-07T07:28:41.633Z,13.87
2017-09-07T07:29:51.592Z,13.94
2017-09-07T07:31:02.106Z,13.97
2017-09-07T07:32:12.387Z,13.91
2017-09-07T07:33:22.735Z,14.03
2017-09-07T07:34:32.746Z,14.05
2017-09-07T07:35:43.019Z,14.05
2017-09-07T07:36:53.581Z,14.15
2017-09-07T07:38:04.174Z,14.13
2017-09-07T07:39:14.448Z,14.13
2017-09-07T07:40:25.181Z,14.15
2017-09-07T07:41:34.849Z,14.15
2017-09-07T07:42:45.401Z,14.16
2017-09-07T07:43:55.976Z,14.25
2017-09-07T07:45:05.949Z,14.23
2017-09-07T07:46:16.268Z,14.19
2017-09-07T07:47:26.550Z,14.26
2017-09-07T07:48:37.074Z,14.26
2017-09-07T07:49:47.354Z,14.33
2017-09-07T07:50:57.344Z,14.44
2017-09-07T07:52:07.601Z,14.55
2017-09-07T07:53:17.581Z,14.61
2017-09-07T07:54:28.090Z,14.63
2017-09-07T07:55:38.378Z,14.79
2017-09-07T07:56:48.331Z,14.89
2017-09-07T07:57:58.615Z,14.89
2017-09-07T07:59:08.565Z,14.96
2017-09-07T08:00:19.097Z,14.92
2017-09-07T08:01:29.080Z,14.85
2017-09-07T08:02:39.371Z,14.78
2017-09-07T08:03:49.340Z,14.73
2017-09-07T08:04:59.616Z,14.81
2017-09-07T08:06:10.116Z,14.87
2017-09-07T08:07:20.105Z,14.9
2017-09-07T08:08:30.414Z,15.02
2017-09-07T08:09:40.677Z,15
2017-09-07T08:10:50.948Z,15.14
2017-09-07T08:12:01.254Z,15.12
2017-09-07T08:13:11.525Z,15.02
2017-09-07T08:14:21.163Z,15
2017-09-07T08:15:31.435Z,14.96
2017-09-07T08:16:41.066Z,14.96
2017-09-07T08:17:51.573Z,15.07
2017-09-07T08:19:01.821Z,15.04
2017-09-07T08:20:12.098Z,15.02
2017-09-07T08:21:22.374Z,15.02
2017-09-07T08:22:32.352Z,15.07
2017-09-07T08:23:42.888Z,15.25
2017-09-07T08:24:52.860Z,15.11
2017-09-07T08:26:02.827Z,15
2017-09-07T08:27:13.124Z,15
2017-09-07T08:28:23.439Z,15.07
2017-09-07T08:29:33.672Z,15.15
2017-09-07T08:30:43.316Z,15.12
2017-09-07T08:31:53.281Z,15.19
2017-09-07T08:33:03.569Z,15.19
2017-09-07T08:34:13.899Z,15.23
2017-09-07T08:35:23.786Z,15.23
2017-09-07T08:36:33.759Z,15.19
2017-09-07T08:37:43.420Z,15.1
2017-09-07T08:38:53.711Z,15.12
2017-09-07T08:40:03.997Z,15.23
2017-09-07T08:41:14.514Z,15.25
2017-09-07T08:42:24.461Z,15.35
2017-09-07T08:43:34.766Z,15.37
2017-09-07T08:44:45.086Z,15.44
2017-09-07T08:45:55.414Z,15.55
2017-09-07T08:47:05.964Z,15.63
2017-09-07T08:48:15.631Z,15.69
2017-09-07T08:49:25.892Z,15.76
2017-09-07T08:50:36.173Z,15.72
2017-09-07T08:51:45.785Z,15.7
2017-09-07T08:52:55.994Z,15.81
2017-09-07T08:54:06.289Z,15.84
2017-09-07T08:55:15.956Z,15.76
2017-09-07T08:56:25.902Z,15.76
2017-09-07T08:57:36.180Z,15.7
2017-09-07T08:58:46.698Z,15.88
2017-09-07T08:59:56.949Z,15.87
2017-09-07T09:01:07.279Z,15.88
2017-09-07T09:02:17.257Z,15.75
2017-09-07T09:03:27.517Z,15.9
2017-09-07T09:04:38.284Z,15.94
2017-09-07T09:05:48.564Z,16.16
2017-09-07T09:06:58.817Z,16.26
2017-09-07T09:08:09.110Z,16.18
2017-09-07T09:09:19.066Z,16.16
2017-09-07T09:10:29.260Z,16.17
2017-09-07T09:11:39.568Z,16.09
2017-09-07T09:12:49.508Z,16.12
2017-09-07T09:13:59.779Z,16.13
2017-09-07T09:15:09.754Z,15.94
2017-09-07T09:16:20.279Z,15.75
2017-09-07T09:17:30.544Z,15.78
2017-09-07T09:18:40.482Z,15.87
2017-09-07T09:19:50.443Z,16.02
2017-09-07T09:21:00.389Z,16.12
2017-09-07T09:22:10.587Z,16.17
2017-09-07T09:23:20.854Z,16.25
2017-09-07T09:24:31.131Z,16.25
2017-09-07T09:25:41.402Z,16.21
2017-09-07T09:26:51.350Z,16.29
2017-09-07T09:28:01.536Z,16.44
2017-09-07T09:29:11.491Z,16.46
2017-09-07T09:30:21.752Z,16.47
2017-09-07T09:31:32.016Z,16.41
2017-09-07T09:32:42.283Z,16.55
2017-09-07T09:33:52.815Z,16.62
2017-09-07T09:35:02.760Z,16.69
2017-09-07T09:36:13.043Z,16.8
2017-09-07T09:37:23.301Z,16.86
2017-09-07T09:38:33.638Z,16.74
2017-09-07T09:39:44.150Z,16.66
2017-09-07T09:40:53.459Z,16.61
2017-09-07T09:42:03.723Z,16.62
2017-09-07T09:43:13.988Z,16.51
2017-09-07T09:44:23.951Z,16.65
2017-09-07T09:45:34.462Z,16.79
2017-09-07T09:46:44.404Z,16.98
2017-09-07T09:47:54.672Z,17.17
2017-09-07T09:49:04.953Z,17.34
2017-09-07T09:50:15.253Z,17.42
2017-09-07T09:51:25.829Z,17.39
2017-09-07T09:52:35.791Z,17.35
2017-09-07T09:53:45.734Z,17.38
2017-09-07T09:54:56.106Z,17.24
2017-09-07T09:56:06.373Z,17.16
2017-09-07T09:57:16.899Z,17.1
2017-09-07T09:58:26.535Z,17.07
2017-09-07T09:59:36.795Z,16.95
2017-09-07T10:00:46.743Z,16.95
2017-09-07T10:01:57.027Z,16.95
2017-09-07T10:03:07.548Z,16.95
2017-09-07T10:04:17.713Z,17.1
2017-09-07T10:05:27.346Z,17.05
2017-09-07T10:06:37.298Z,16.98
2017-09-07T10:07:47.553Z,16.95
2017-09-07T10:08:58.075Z,16.86
2017-09-07T10:10:08.340Z,16.65
2017-09-07T10:11:18.617Z,16.58
2017-09-07T10:12:28.889Z,16.44
2017-09-07T10:13:38.874Z,16.29
2017-09-07T10:14:49.396Z,16.21
2017-09-07T10:15:59.367Z,15.99
2017-09-07T10:17:09.641Z,15.75
2017-09-07T10:18:19.912Z,15.73
2017-09-07T10:19:30.232Z,15.87
2017-09-07T10:20:40.138Z,15.96
2017-09-07T10:21:50.410Z,16.12
2017-09-07T10:23:00.687Z,16.22
2017-09-07T10:24:10.959Z,16.39
2017-09-07T10:25:21.224Z,16.46
2017-09-07T10:26:31.440Z,16.55
2017-09-07T10:27:41.434Z,16.66
2017-09-07T10:28:51.413Z,16.73
2017-09-07T10:30:01.716Z,16.79
2017-09-07T10:31:11.997Z,16.79
2017-09-07T10:32:22.556Z,16.57
2017-09-07T10:33:32.548Z,16.36
2017-09-07T10:34:42.530Z,16.16
2017-09-07T10:35:52.784Z,15.94
2017-09-07T10:37:02.853Z,15.85
2017-09-07T10:38:13.046Z,15.83
2017-09-07T10:39:23.334Z,15.78
2017-09-07T10:40:33.644Z,15.72
2017-09-07T10:41:43.924Z,15.81
2017-09-07T10:42:53.890Z,15.7
2017-09-07T10:44:04.103Z,15.55
2017-09-07T10:45:14.362Z,15.44
2017-09-07T10:46:24.631Z,15.5
2017-09-07T10:47:34.257Z,15.57
2017-09-07T10:48:44.247Z,15.62
2017-09-07T10:49:55.018Z,15.63
2017-09-07T10:51:05.277Z,15.73
2017-09-07T10:52:15.538Z,15.81
2017-09-07T10:53:25.804Z,16.06
2017-09-07T10:54:35.765Z,16.25
2017-09-07T10:55:46.308Z,16.46
2017-09-07T10:56:56.876Z,16.82
2017-09-07T10:58:07.146Z,16.95
2017-09-07T10:59:17.441Z,17.12
2017-09-07T11:00:27.414Z,17.17
2017-09-07T11:01:37.925Z,17.1
2017-09-07T11:02:48.208Z,17.12
2017-09-07T11:03:58.466Z,16.97
2017-09-07T11:05:08.725Z,16.84
2017-09-07T11:06:19.009Z,16.74
2017-09-07T11:07:29.261Z,16.59
2017-09-07T11:08:39.519Z,16.46
2017-09-07T11:09:49.767Z,16.34
2017-09-07T11:11:00.051Z,16.25
2017-09-07T11:12:09.997Z,16.12
2017-09-07T11:13:20.551Z,16.02
2017-09-07T11:14:30.808Z,15.88
2017-09-07T11:15:41.066Z,15.84
2017-09-07T11:16:51.335Z,16
2017-09-07T11:18:01.846Z,16
2017-09-07T11:19:11.736Z,16.24
2017-09-07T11:20:22.017Z,16.31
2017-09-07T11:21:32.274Z,16.37
2017-09-07T11:22:42.242Z,16.46
2017-09-07T11:23:52.195Z,16.65
2017-09-07T11:25:02.736Z,16.65
2017-09-07T11:26:12.991Z,16.51
2017-09-07T11:27:23.249Z,16.62
2017-09-07T11:28:33.194Z,16.51
2017-09-07T11:29:43.132Z,16.57
2017-09-07T11:30:53.634Z,16.72
2017-09-07T11:32:03.896Z,16.64
2017-09-07T11:33:14.169Z,16.61
2017-09-07T11:34:24.429Z,16.59
2017-09-07T11:35:34.691Z,16.65
2017-09-07T11:36:45.213Z,16.74
2017-09-07T11:37:55.492Z,16.76
2017-09-07T11:39:05.743Z,16.64
2017-09-07T11:40:15.688Z,16.57
2017-09-07T11:41:25.632Z,16.47
2017-09-07T11:42:36.154Z,16.58
2017-09-07T11:43:46.090Z,16.51
2017-09-07T11:44:56.350Z,16.5
2017-09-07T11:46:06.289Z,16.4
2017-09-07T11:47:16.249Z,16.46
2017-09-07T11:48:26.761Z,16.26
2017-09-07T11:49:37.033Z,15.88
2017-09-07T11:50:47.305Z,15.36
2017-09-07T11:51:57.551Z,15
2017-09-07T11:53:07.812Z,14.92
2017-09-07T11:54:18.322Z,14.74
2017-09-07T11:55:28.590Z,14.67
2017-09-07T11:56:38.846Z,14.74
2017-09-07T11:57:49.105Z,14.71
2017-09-07T11:58:59.380Z,14.79
2017-09-07T12:00:09.573Z,14.85
2017-09-07T12:01:19.541Z,14.85
2017-09-07T12:02:29.828Z,14.93
2017-09-07T12:03:40.106Z,14.94
2017-09-07T12:04:49.105Z,15.05
2017-09-07T12:05:58.990Z,15.02
2017-09-07T12:07:08.944Z,15.08
2017-09-07T12:08:18.896Z,15.11
2017-09-07T12:09:28.536Z,15.18
2017-09-07T12:10:38.503Z,15.15
2017-09-07T12:11:49.027Z,15.22
2017-09-07T12:12:59.355Z,15.37
2017-09-07T12:14:09.635Z,15.41
2017-09-07T12:15:18.972Z,15.45
2017-09-07T12:16:28.939Z,15.52
2017-09-07T12:17:38.808Z,15.59
2017-09-07T12:18:49.062Z,15.66
2017-09-07T12:19:59.012Z,15.75
2017-09-07T12:21:08.328Z,15.72
2017-09-07T12:22:18.280Z,15.84
2017-09-07T12:23:28.806Z,15.83
2017-09-07T12:24:39.096Z,15.88
2017-09-07T12:25:49.061Z,15.99
2017-09-07T12:26:59.337Z,16.08
2017-09-07T12:28:09.622Z,16.05
2017-09-07T12:29:20.159Z,16.02
2017-09-07T12:30:30.701Z,16
2017-09-07T12:31:40.963Z,16.06
2017-09-07T12:32:51.241Z,16.05
2017-09-07T12:34:01.539Z,16.09
2017-09-07T12:35:12.201Z,16.16
2017-09-07T12:36:22.516Z,16.06
2017-09-07T12:37:32.813Z,16.24
2017-09-07T12:38:42.771Z,16.22
2017-09-07T12:39:52.752Z,16.28
2017-09-07T12:41:03.271Z,16.18
2017-09-07T12:42:13.241Z,16.06
2017-09-07T12:43:23.517Z,16.12
2017-09-07T12:44:33.481Z,16.09
2017-09-07T12:45:43.754Z,16.03
2017-09-07T12:46:53.326Z,16.03
2017-09-07T12:48:03.329Z,16
2017-09-07T12:49:13.673Z,16.08
2017-09-07T12:50:24.018Z,16.12
2017-09-07T12:51:34.317Z,16.05
2017-09-07T12:52:44.572Z,16.05
2017-09-07T12:53:54.560Z,15.94
2017-09-07T12:55:04.523Z,16.05
2017-09-07T12:56:14.834Z,16.12
2017-09-07T12:57:25.172Z,16.08
2017-09-07T12:58:35.387Z,16.1
2017-09-07T12:59:45.732Z,16.05
2017-09-07T13:00:56.009Z,16.17
2017-09-07T13:02:06.321Z,16.26
2017-09-07T13:03:16.602Z,16.4
2017-09-07T13:04:27.161Z,16.43
2017-09-07T13:05:36.799Z,16.49
2017-09-07T13:06:47.082Z,16.58
2017-09-07T13:07:57.389Z,16.51
2017-09-07T13:09:07.705Z,16.57
2017-09-07T13:10:18.260Z,16.65
2017-09-07T13:11:28.232Z,16.72
2017-09-07T13:12:38.501Z,16.89
2017-09-07T13:13:48.788Z,16.97
2017-09-07T13:14:58.729Z,16.91
2017-09-07T13:16:09.265Z,16.74
2017-09-07T13:17:19.529Z,16.54
2017-09-07T13:18:29.789Z,16.5
2017-09-07T13:19:39.765Z,16.59
2017-09-07T13:20:49.714Z,16.59
2017-09-07T13:21:59.908Z,16.55
2017-09-07T13:23:09.884Z,16.44
2017-09-07T13:24:19.510Z,16.44
2017-09-07T13:25:29.784Z,16.36
2017-09-07T13:26:40.069Z,16.41
2017-09-07T13:27:50.269Z,16.36
2017-09-07T13:29:00.539Z,16.39
2017-09-07T13:30:10.802Z,16.28
2017-09-07T13:31:21.056Z,16.25
2017-09-07T13:32:31.323Z,16.09
2017-09-07T13:33:41.532Z,16.02
2017-09-07T13:34:51.489Z,15.88
2017-09-07T13:36:01.768Z,15.78
2017-09-07T13:37:11.723Z,15.63
2017-09-07T13:38:21.049Z,15.36
2017-09-07T13:39:31.620Z,15.36
2017-09-07T13:40:41.895Z,15.29
2017-09-07T13:41:52.166Z,15.3
2017-09-07T13:43:02.436Z,15.26
2017-09-07T13:44:12.701Z,15.11
2017-09-07T13:45:23.218Z,15.18
2017-09-07T13:46:33.175Z,15.18
2017-09-07T13:47:43.126Z,15.23
2017-09-07T13:48:53.067Z,15.29
2017-09-07T13:50:03.356Z,15.26
2017-09-07T13:51:13.891Z,15.19
2017-09-07T13:52:23.847Z,15.23
2017-09-07T13:53:34.137Z,15.25
2017-09-07T13:54:44.092Z,15.17
2017-09-07T13:55:54.392Z,15.19
2017-09-07T13:57:04.912Z,15.18
2017-09-07T13:58:15.183Z,15.12
2017-09-07T13:59:25.127Z,15.22
2017-09-07T14:00:35.400Z,15.32
2017-09-07T14:01:45.344Z,15.17
2017-09-07T14:02:55.223Z,15.18
2017-09-07T14:04:05.176Z,15.3
2017-09-07T14:05:15.151Z,15.36
2017-09-07T14:06:25.088Z,15.43
2017-09-07T14:07:35.346Z,15.41
2017-09-07T14:08:45.860Z,15.36
2017-09-07T14:09:55.523Z,15.37
2017-09-07T14:11:05.469Z,15.29
2017-09-07T14:12:15.741Z,15.44
2017-09-07T14:13:25.695Z,15.48
2017-09-07T14:14:36.222Z,15.57
2017-09-07T14:15:46.491Z,15.65
2017-09-07T14:16:56.433Z,15.73
2017-09-07T14:18:06.696Z,15.73
2017-09-07T14:19:16.955Z,15.87
2017-09-07T14:20:27.155Z,16
2017-09-07T14:21:37.421Z,16.06
2017-09-07T14:22:47.363Z,16.06
2017-09-07T14:23:57.655Z,16.24
2017-09-07T14:25:07.599Z,16.21
2017-09-07T14:26:18.106Z,16.26
2017-09-07T14:27:28.368Z,16.37
2017-09-07T14:28:38.631Z,16.36
2017-09-07T14:29:48.912Z,16.29
2017-09-07T14:30:58.868Z,16.32
2017-09-07T14:32:09.401Z,16.34
2017-09-07T14:33:19.660Z,16.34
2017-09-07T14:34:29.920Z,16.25
2017-09-07T14:35:40.185Z,16.24
2017-09-07T14:36:50.436Z,16.16
2017-09-07T14:38:00.932Z,16.06
2017-09-07T14:39:10.877Z,16.08
2017-09-07T14:40:21.126Z,16.06
2017-09-07T14:41:31.064Z,15.98
2017-09-07T14:42:41.333Z,15.98
2017-09-07T14:43:51.834Z,16.08
2017-09-07T14:45:02.090Z,15.91
2017-09-07T14:46:12.037Z,16
2017-09-07T14:47:22.305Z,15.84
2017-09-07T14:48:32.253Z,15.87
2017-09-07T14:49:42.757Z,15.8
2017-09-07T14:50:52.689Z,15.75
2017-09-07T14:52:02.309Z,15.76
2017-09-07T14:53:12.270Z,15.73
2017-09-07T14:54:22.525Z,15.88
2017-09-07T14:55:33.038Z,15.84
2017-09-07T14:56:43.320Z,15.75
2017-09-07T14:57:53.590Z,15.76
2017-09-07T14:59:03.537Z,15.75
2017-09-07T15:00:13.818Z,15.85
2017-09-07T15:01:24.325Z,15.96
2017-09-07T15:02:34.593Z,15.92
2017-09-07T15:03:44.842Z,15.98
2017-09-07T15:04:54.773Z,16.02
2017-09-07T15:06:04.716Z,16.05
2017-09-07T15:07:15.223Z,16.03
2017-09-07T15:08:25.472Z,16.12